sensor_id;sensor_type;location;lat;lon;timestamp;P1;durP1;ratioP1;P2;durP2;ratioP2
9106;SDS011;4589;48.690;8.952;2023-06-04T00:02:04;8.30;;;6.17;;
9106;SDS011;4589;48.690;8.952;2023-06-04T00:04:30;8.50;;;6.50;;
9106;SDS011;4589;48.690;8.952;2023-06-04T00:06:56;7.77;;;5.70;;
9106;SDS011;4589;48.690;8.952;2023-06-04T00:09:22;7.50;;;5.70;;
9106;SDS011;4589;48.690;8.952;2023-06-04T00:11:48;10.13;;;6.77;;
9106;SDS011;4589;48.690;8.952;2023-06-04T00:14:14;8.73;;;6.23;;
9106;SDS011;4589;48.690;8.952;2023-06-04T00:16:40;7.27;;;5.30;;
9106;SDS011;4589;48.690;8.952;2023-06-04T00:19:07;7.13;;;5.93;;
9106;SDS011;4589;48.690;8.952;2023-06-04T00:21:32;8.77;;;5.63;;
9106;SDS011;4589;48.690;8.952;2023-06-04T00:23:59;7.47;;;5.87;;
9106;SDS011;4589;48.690;8.952;2023-06-04T00:26:25;7.47;;;5.40;;
9106;SDS011;4589;48.690;8.952;2023-06-04T00:28:51;9.93;;;6.10;;
9106;SDS011;4589;48.690;8.952;2023-06-04T00:31:17;9.10;;;6.00;;
9106;SDS011;4589;48.690;8.952;2023-06-04T00:33:43;8.20;;;6.13;;
9106;SDS011;4589;48.690;8.952;2023-06-04T00:36:09;7.47;;;5.50;;
9106;SDS011;4589;48.690;8.952;2023-06-04T00:38:35;7.80;;;5.30;;
9106;SDS011;4589;48.690;8.952;2023-06-04T00:41:01;7.70;;;5.80;;
9106;SDS011;4589;48.690;8.952;2023-06-04T00:43:27;10.90;;;6.97;;
9106;SDS011;4589;48.690;8.952;2023-06-04T00:45:56;7.80;;;6.00;;
9106;SDS011;4589;48.690;8.952;2023-06-04T00:48:22;7.30;;;5.33;;
9106;SDS011;4589;48.690;8.952;2023-06-04T00:50:48;8.60;;;5.53;;
9106;SDS011;4589;48.690;8.952;2023-06-04T00:53:14;6.67;;;5.33;;
9106;SDS011;4589;48.690;8.952;2023-06-04T00:55:40;7.40;;;6.33;;
9106;SDS011;4589;48.690;8.952;2023-06-04T00:58:06;8.63;;;5.87;;
9106;SDS011;4589;48.690;8.952;2023-06-04T01:00:34;7.90;;;6.00;;
9106;SDS011;4589;48.690;8.952;2023-06-04T01:03:00;9.90;;;5.20;;
9106;SDS011;4589;48.690;8.952;2023-06-04T01:05:34;15.43;;;7.17;;
9106;SDS011;4589;48.690;8.952;2023-06-04T01:08:04;6.30;;;5.70;;
9106;SDS011;4589;48.690;8.952;2023-06-04T01:10:33;8.43;;;5.30;;
9106;SDS011;4589;48.690;8.952;2023-06-04T01:13:00;9.73;;;6.67;;
9106;SDS011;4589;48.690;8.952;2023-06-04T01:15:26;7.40;;;5.97;;
9106;SDS011;4589;48.690;8.952;2023-06-04T01:17:53;9.30;;;6.50;;
9106;SDS011;4589;48.690;8.952;2023-06-04T01:26:02;10.13;;;5.80;;
9106;SDS011;4589;48.690;8.952;2023-06-04T01:28:29;9.40;;;6.23;;
9106;SDS011;4589;48.690;8.952;2023-06-04T01:30:57;10.60;;;7.23;;
9106;SDS011;4589;48.690;8.952;2023-06-04T01:33:25;7.43;;;5.40;;
9106;SDS011;4589;48.690;8.952;2023-06-04T01:35:51;8.03;;;5.83;;
9106;SDS011;4589;48.690;8.952;2023-06-04T01:38:17;11.90;;;6.17;;
9106;SDS011;4589;48.690;8.952;2023-06-04T01:40:43;6.70;;;5.37;;
9106;SDS011;4589;48.690;8.952;2023-06-04T01:43:09;8.20;;;5.73;;
9106;SDS011;4589;48.690;8.952;2023-06-04T01:45:35;8.80;;;5.60;;
9106;SDS011;4589;48.690;8.952;2023-06-04T01:48:02;6.67;;;5.07;;
9106;SDS011;4589;48.690;8.952;2023-06-04T01:50:29;8.03;;;5.53;;
9106;SDS011;4589;48.690;8.952;2023-06-04T01:52:55;7.63;;;5.40;;
9106;SDS011;4589;48.690;8.952;2023-06-04T01:55:21;6.53;;;5.57;;
9106;SDS011;4589;48.690;8.952;2023-06-04T01:57:50;7.40;;;5.63;;
9106;SDS011;4589;48.690;8.952;2023-06-04T02:00:16;6.70;;;5.27;;
9106;SDS011;4589;48.690;8.952;2023-06-04T02:02:43;7.43;;;5.20;;
9106;SDS011;4589;48.690;8.952;2023-06-04T02:05:13;7.93;;;5.67;;
9106;SDS011;4589;48.690;8.952;2023-06-04T02:07:40;7.57;;;6.10;;
9106;SDS011;4589;48.690;8.952;2023-06-04T02:12:33;7.93;;;5.90;;
9106;SDS011;4589;48.690;8.952;2023-06-04T02:14:59;8.80;;;6.17;;
9106;SDS011;4589;48.690;8.952;2023-06-04T02:17:24;6.37;;;5.10;;
9106;SDS011;4589;48.690;8.952;2023-06-04T02:19:50;8.23;;;5.73;;
9106;SDS011;4589;48.690;8.952;2023-06-04T02:22:17;6.50;;;5.60;;
9106;SDS011;4589;48.690;8.952;2023-06-04T02:24:43;8.10;;;6.20;;
9106;SDS011;4589;48.690;8.952;2023-06-04T02:27:09;9.43;;;6.67;;
9106;SDS011;4589;48.690;8.952;2023-06-04T02:29:35;8.33;;;5.83;;
9106;SDS011;4589;48.690;8.952;2023-06-04T02:32:03;8.00;;;5.67;;
9106;SDS011;4589;48.690;8.952;2023-06-04T02:34:29;7.63;;;5.73;;
9106;SDS011;4589;48.690;8.952;2023-06-04T02:36:56;8.80;;;5.80;;
9106;SDS011;4589;48.690;8.952;2023-06-04T02:39:23;9.27;;;6.10;;
9106;SDS011;4589;48.690;8.952;2023-06-04T02:41:49;9.13;;;5.30;;
9106;SDS011;4589;48.690;8.952;2023-06-04T02:44:15;9.10;;;6.70;;
9106;SDS011;4589;48.690;8.952;2023-06-04T02:46:41;9.23;;;6.00;;
9106;SDS011;4589;48.690;8.952;2023-06-04T02:49:07;8.87;;;5.80;;
9106;SDS011;4589;48.690;8.952;2023-06-04T02:51:33;8.70;;;5.40;;
9106;SDS011;4589;48.690;8.952;2023-06-04T02:53:59;10.00;;;5.83;;
9106;SDS011;4589;48.690;8.952;2023-06-04T02:56:25;7.07;;;5.50;;
9106;SDS011;4589;48.690;8.952;2023-06-04T02:58:52;10.47;;;6.20;;
9106;SDS011;4589;48.690;8.952;2023-06-04T03:01:20;10.17;;;6.23;;
9106;SDS011;4589;48.690;8.952;2023-06-04T03:03:46;9.47;;;6.07;;
9106;SDS011;4589;48.690;8.952;2023-06-04T03:06:12;8.00;;;5.77;;
9106;SDS011;4589;48.690;8.952;2023-06-04T03:08:39;9.77;;;5.90;;
9106;SDS011;4589;48.690;8.952;2023-06-04T03:11:05;6.90;;;4.97;;
9106;SDS011;4589;48.690;8.952;2023-06-04T03:13:31;8.20;;;6.10;;
9106;SDS011;4589;48.690;8.952;2023-06-04T03:15:57;9.80;;;5.90;;
9106;SDS011;4589;48.690;8.952;2023-06-04T03:18:29;8.67;;;6.37;;
9106;SDS011;4589;48.690;8.952;2023-06-04T03:20:54;9.17;;;6.37;;
9106;SDS011;4589;48.690;8.952;2023-06-04T03:23:21;10.60;;;6.43;;
9106;SDS011;4589;48.690;8.952;2023-06-04T03:25:47;10.73;;;6.80;;
9106;SDS011;4589;48.690;8.952;2023-06-04T03:28:13;7.90;;;5.47;;
9106;SDS011;4589;48.690;8.952;2023-06-04T03:30:40;7.57;;;6.40;;
9106;SDS011;4589;48.690;8.952;2023-06-04T03:33:05;10.43;;;5.73;;
9106;SDS011;4589;48.690;8.952;2023-06-04T03:35:32;9.13;;;5.60;;
9106;SDS011;4589;48.690;8.952;2023-06-04T03:37:58;8.93;;;6.33;;
9106;SDS011;4589;48.690;8.952;2023-06-04T03:40:23;9.33;;;6.50;;
9106;SDS011;4589;48.690;8.952;2023-06-04T03:42:49;6.83;;;5.47;;
9106;SDS011;4589;48.690;8.952;2023-06-04T03:45:15;7.83;;;5.83;;
9106;SDS011;4589;48.690;8.952;2023-06-04T03:47:40;7.87;;;6.30;;
9106;SDS011;4589;48.690;8.952;2023-06-04T03:50:06;6.83;;;6.00;;
9106;SDS011;4589;48.690;8.952;2023-06-04T03:52:32;7.70;;;5.77;;
9106;SDS011;4589;48.690;8.952;2023-06-04T03:54:58;7.63;;;6.30;;
9106;SDS011;4589;48.690;8.952;2023-06-04T03:57:25;10.50;;;6.70;;
9106;SDS011;4589;48.690;8.952;2023-06-04T03:59:52;8.07;;;5.83;;
9106;SDS011;4589;48.690;8.952;2023-06-04T04:02:17;10.83;;;5.70;;
9106;SDS011;4589;48.690;8.952;2023-06-04T04:04:43;13.17;;;6.77;;
9106;SDS011;4589;48.690;8.952;2023-06-04T04:07:09;11.17;;;7.20;;
9106;SDS011;4589;48.690;8.952;2023-06-04T04:09:35;7.70;;;5.30;;
9106;SDS011;4589;48.690;8.952;2023-06-04T04:12:01;7.23;;;5.63;;
9106;SDS011;4589;48.690;8.952;2023-06-04T04:14:27;9.87;;;6.20;;
9106;SDS011;4589;48.690;8.952;2023-06-04T04:16:53;9.03;;;5.97;;
9106;SDS011;4589;48.690;8.952;2023-06-04T04:19:19;7.73;;;6.17;;
9106;SDS011;4589;48.690;8.952;2023-06-04T04:21:45;13.53;;;6.10;;
9106;SDS011;4589;48.690;8.952;2023-06-04T04:24:21;9.00;;;5.90;;
9106;SDS011;4589;48.690;8.952;2023-06-04T04:26:52;8.80;;;5.90;;
9106;SDS011;4589;48.690;8.952;2023-06-04T04:29:18;8.37;;;6.33;;
9106;SDS011;4589;48.690;8.952;2023-06-04T04:31:47;9.93;;;6.83;;
9106;SDS011;4589;48.690;8.952;2023-06-04T04:34:16;8.70;;;6.30;;
9106;SDS011;4589;48.690;8.952;2023-06-04T04:36:45;8.73;;;6.10;;
9106;SDS011;4589;48.690;8.952;2023-06-04T04:39:17;8.80;;;5.60;;
9106;SDS011;4589;48.690;8.952;2023-06-04T04:41:43;9.50;;;5.63;;
9106;SDS011;4589;48.690;8.952;2023-06-04T04:44:08;7.90;;;5.60;;
9106;SDS011;4589;48.690;8.952;2023-06-04T04:46:34;6.97;;;5.50;;
9106;SDS011;4589;48.690;8.952;2023-06-04T04:49:00;6.13;;;5.30;;
9106;SDS011;4589;48.690;8.952;2023-06-04T04:51:26;9.30;;;5.17;;
9106;SDS011;4589;48.690;8.952;2023-06-04T04:53:52;7.37;;;5.50;;
9106;SDS011;4589;48.690;8.952;2023-06-04T04:56:19;7.10;;;5.30;;
9106;SDS011;4589;48.690;8.952;2023-06-04T04:58:45;7.03;;;6.33;;
9106;SDS011;4589;48.690;8.952;2023-06-04T05:01:11;7.83;;;5.80;;
9106;SDS011;4589;48.690;8.952;2023-06-04T05:03:36;6.73;;;5.03;;
9106;SDS011;4589;48.690;8.952;2023-06-04T05:06:02;6.17;;;5.20;;
9106;SDS011;4589;48.690;8.952;2023-06-04T05:08:28;5.70;;;5.10;;
9106;SDS011;4589;48.690;8.952;2023-06-04T05:10:54;6.90;;;5.10;;
9106;SDS011;4589;48.690;8.952;2023-06-04T05:13:20;6.27;;;5.30;;
9106;SDS011;4589;48.690;8.952;2023-06-04T05:15:47;9.03;;;4.93;;
9106;SDS011;4589;48.690;8.952;2023-06-04T05:18:13;6.60;;;5.60;;
9106;SDS011;4589;48.690;8.952;2023-06-04T05:20:41;5.40;;;4.90;;
9106;SDS011;4589;48.690;8.952;2023-06-04T05:23:07;5.20;;;4.43;;
9106;SDS011;4589;48.690;8.952;2023-06-04T05:25:33;6.80;;;5.17;;
9106;SDS011;4589;48.690;8.952;2023-06-04T05:27:59;8.33;;;5.27;;
9106;SDS011;4589;48.690;8.952;2023-06-04T05:30:24;6.13;;;4.50;;
9106;SDS011;4589;48.690;8.952;2023-06-04T05:32:50;5.07;;;4.30;;
9106;SDS011;4589;48.690;8.952;2023-06-04T05:35:18;8.10;;;4.63;;
9106;SDS011;4589;48.690;8.952;2023-06-04T05:37:44;4.77;;;4.37;;
9106;SDS011;4589;48.690;8.952;2023-06-04T05:40:10;5.37;;;4.37;;
9106;SDS011;4589;48.690;8.952;2023-06-04T05:42:37;8.00;;;4.37;;
9106;SDS011;4589;48.690;8.952;2023-06-04T05:45:03;5.37;;;4.37;;
9106;SDS011;4589;48.690;8.952;2023-06-04T05:47:30;4.83;;;3.90;;
9106;SDS011;4589;48.690;8.952;2023-06-04T05:49:56;6.97;;;4.10;;
9106;SDS011;4589;48.690;8.952;2023-06-04T05:52:22;4.00;;;3.60;;
9106;SDS011;4589;48.690;8.952;2023-06-04T05:54:48;7.67;;;3.87;;
9106;SDS011;4589;48.690;8.952;2023-06-04T05:57:13;4.33;;;3.33;;
9106;SDS011;4589;48.690;8.952;2023-06-04T05:59:39;3.93;;;3.50;;
9106;SDS011;4589;48.690;8.952;2023-06-04T06:02:05;4.10;;;3.70;;
9106;SDS011;4589;48.690;8.952;2023-06-04T06:04:31;4.57;;;3.87;;
9106;SDS011;4589;48.690;8.952;2023-06-04T06:06:57;4.37;;;3.57;;
9106;SDS011;4589;48.690;8.952;2023-06-04T06:09:23;3.40;;;3.00;;
9106;SDS011;4589;48.690;8.952;2023-06-04T06:11:49;5.40;;;3.60;;
9106;SDS011;4589;48.690;8.952;2023-06-04T06:14:14;4.20;;;3.20;;
9106;SDS011;4589;48.690;8.952;2023-06-04T06:16:40;4.87;;;3.70;;
9106;SDS011;4589;48.690;8.952;2023-06-04T06:19:06;4.23;;;3.60;;
9106;SDS011;4589;48.690;8.952;2023-06-04T06:21:32;4.83;;;3.30;;
9106;SDS011;4589;48.690;8.952;2023-06-04T06:23:58;4.47;;;3.57;;
9106;SDS011;4589;48.690;8.952;2023-06-04T06:26:24;5.63;;;3.67;;
9106;SDS011;4589;48.690;8.952;2023-06-04T06:28:50;4.30;;;3.90;;
9106;SDS011;4589;48.690;8.952;2023-06-04T06:31:16;4.17;;;3.23;;
9106;SDS011;4589;48.690;8.952;2023-06-04T06:33:42;7.30;;;3.53;;
9106;SDS011;4589;48.690;8.952;2023-06-04T06:36:11;3.67;;;3.03;;
9106;SDS011;4589;48.690;8.952;2023-06-04T06:38:43;4.30;;;3.40;;
9106;SDS011;4589;48.690;8.952;2023-06-04T06:41:10;4.50;;;3.50;;
9106;SDS011;4589;48.690;8.952;2023-06-04T06:43:36;6.53;;;3.00;;
9106;SDS011;4589;48.690;8.952;2023-06-04T06:46:02;3.90;;;2.57;;
9106;SDS011;4589;48.690;8.952;2023-06-04T06:48:28;3.70;;;2.67;;
9106;SDS011;4589;48.690;8.952;2023-06-04T06:50:53;3.07;;;2.47;;
9106;SDS011;4589;48.690;8.952;2023-06-04T06:53:19;3.17;;;2.87;;
9106;SDS011;4589;48.690;8.952;2023-06-04T06:55:45;2.93;;;2.63;;
9106;SDS011;4589;48.690;8.952;2023-06-04T06:58:11;3.30;;;2.80;;
9106;SDS011;4589;48.690;8.952;2023-06-04T07:00:37;3.30;;;2.60;;
9106;SDS011;4589;48.690;8.952;2023-06-04T07:03:03;2.77;;;2.47;;
9106;SDS011;4589;48.690;8.952;2023-06-04T07:05:29;2.73;;;2.43;;
9106;SDS011;4589;48.690;8.952;2023-06-04T07:07:55;2.93;;;2.67;;
9106;SDS011;4589;48.690;8.952;2023-06-04T07:10:22;2.77;;;2.40;;
9106;SDS011;4589;48.690;8.952;2023-06-04T07:12:49;4.47;;;2.90;;
9106;SDS011;4589;48.690;8.952;2023-06-04T07:15:15;4.70;;;2.80;;
9106;SDS011;4589;48.690;8.952;2023-06-04T07:17:41;3.90;;;2.70;;
9106;SDS011;4589;48.690;8.952;2023-06-04T07:20:07;2.50;;;2.30;;
9106;SDS011;4589;48.690;8.952;2023-06-04T07:22:34;3.47;;;3.17;;
9106;SDS011;4589;48.690;8.952;2023-06-04T07:25:00;3.50;;;3.07;;
9106;SDS011;4589;48.690;8.952;2023-06-04T07:27:26;4.50;;;2.60;;
9106;SDS011;4589;48.690;8.952;2023-06-04T07:29:53;2.97;;;2.40;;
9106;SDS011;4589;48.690;8.952;2023-06-04T07:32:18;3.40;;;2.73;;
9106;SDS011;4589;48.690;8.952;2023-06-04T07:34:44;3.50;;;2.70;;
9106;SDS011;4589;48.690;8.952;2023-06-04T07:37:09;2.97;;;2.23;;
9106;SDS011;4589;48.690;8.952;2023-06-04T07:39:38;3.00;;;2.60;;
9106;SDS011;4589;48.690;8.952;2023-06-04T07:42:04;3.77;;;2.73;;
9106;SDS011;4589;48.690;8.952;2023-06-04T07:44:32;3.47;;;2.87;;
9106;SDS011;4589;48.690;8.952;2023-06-04T07:46:58;4.17;;;2.73;;
9106;SDS011;4589;48.690;8.952;2023-06-04T07:49:24;5.97;;;2.70;;
9106;SDS011;4589;48.690;8.952;2023-06-04T07:51:49;3.50;;;3.20;;
9106;SDS011;4589;48.690;8.952;2023-06-04T07:54:15;3.50;;;3.20;;
9106;SDS011;4589;48.690;8.952;2023-06-04T07:56:41;4.57;;;3.10;;
9106;SDS011;4589;48.690;8.952;2023-06-04T07:59:07;2.70;;;2.50;;
9106;SDS011;4589;48.690;8.952;2023-06-04T08:01:32;3.43;;;2.63;;
9106;SDS011;4589;48.690;8.952;2023-06-04T08:03:58;2.83;;;2.10;;
9106;SDS011;4589;48.690;8.952;2023-06-04T08:06:25;2.60;;;2.40;;
9106;SDS011;4589;48.690;8.952;2023-06-04T08:08:51;5.00;;;2.57;;
9106;SDS011;4589;48.690;8.952;2023-06-04T08:11:17;4.57;;;2.73;;
9106;SDS011;4589;48.690;8.952;2023-06-04T08:13:43;3.67;;;2.10;;
9106;SDS011;4589;48.690;8.952;2023-06-04T08:16:10;2.93;;;2.67;;
9106;SDS011;4589;48.690;8.952;2023-06-04T08:18:39;3.43;;;3.13;;
9106;SDS011;4589;48.690;8.952;2023-06-04T08:21:05;3.90;;;3.10;;
9106;SDS011;4589;48.690;8.952;2023-06-04T08:23:34;2.80;;;2.60;;
9106;SDS011;4589;48.690;8.952;2023-06-04T08:26:00;3.50;;;2.60;;
9106;SDS011;4589;48.690;8.952;2023-06-04T08:28:25;5.33;;;2.70;;
9106;SDS011;4589;48.690;8.952;2023-06-04T08:30:51;3.10;;;2.80;;
9106;SDS011;4589;48.690;8.952;2023-06-04T08:33:17;3.27;;;2.73;;
9106;SDS011;4589;48.690;8.952;2023-06-04T08:35:42;3.03;;;2.57;;
9106;SDS011;4589;48.690;8.952;2023-06-04T08:38:09;3.10;;;2.80;;
9106;SDS011;4589;48.690;8.952;2023-06-04T08:40:35;4.13;;;2.50;;
9106;SDS011;4589;48.690;8.952;2023-06-04T08:43:01;8.10;;;3.60;;
9106;SDS011;4589;48.690;8.952;2023-06-04T08:45:27;3.10;;;2.57;;
9106;SDS011;4589;48.690;8.952;2023-06-04T08:47:53;4.03;;;3.50;;
9106;SDS011;4589;48.690;8.952;2023-06-04T08:50:20;4.07;;;2.60;;
9106;SDS011;4589;48.690;8.952;2023-06-04T08:52:49;2.70;;;2.50;;
9106;SDS011;4589;48.690;8.952;2023-06-04T08:55:17;4.30;;;3.03;;
9106;SDS011;4589;48.690;8.952;2023-06-04T08:57:43;6.87;;;2.57;;
9106;SDS011;4589;48.690;8.952;2023-06-04T09:00:09;3.07;;;2.60;;
9106;SDS011;4589;48.690;8.952;2023-06-04T09:02:37;3.40;;;2.83;;
9106;SDS011;4589;48.690;8.952;2023-06-04T09:05:04;9.83;;;3.30;;
9106;SDS011;4589;48.690;8.952;2023-06-04T09:07:34;3.00;;;2.80;;
9106;SDS011;4589;48.690;8.952;2023-06-04T09:10:02;2.80;;;2.60;;
9106;SDS011;4589;48.690;8.952;2023-06-04T09:12:28;3.70;;;3.10;;
9106;SDS011;4589;48.690;8.952;2023-06-04T09:14:54;4.80;;;3.00;;
9106;SDS011;4589;48.690;8.952;2023-06-04T09:17:23;4.23;;;2.97;;
9106;SDS011;4589;48.690;8.952;2023-06-04T09:19:50;4.87;;;2.90;;
9106;SDS011;4589;48.690;8.952;2023-06-04T09:22:16;3.83;;;3.00;;
9106;SDS011;4589;48.690;8.952;2023-06-04T09:24:42;3.87;;;2.77;;
9106;SDS011;4589;48.690;8.952;2023-06-04T09:27:15;7.20;;;4.10;;
9106;SDS011;4589;48.690;8.952;2023-06-04T09:30:15;4.37;;;2.97;;
9106;SDS011;4589;48.690;8.952;2023-06-04T09:32:34;3.03;;;2.77;;
9106;SDS011;4589;48.690;8.952;2023-06-04T09:35:13;4.33;;;3.00;;
9106;SDS011;4589;48.690;8.952;2023-06-04T09:37:51;2.57;;;2.37;;
9106;SDS011;4589;48.690;8.952;2023-06-04T09:40:18;3.97;;;2.90;;
9106;SDS011;4589;48.690;8.952;2023-06-04T09:42:50;4.37;;;2.87;;
9106;SDS011;4589;48.690;8.952;2023-06-04T09:45:32;3.53;;;2.80;;
9106;SDS011;4589;48.690;8.952;2023-06-04T09:47:58;2.93;;;2.63;;
9106;SDS011;4589;48.690;8.952;2023-06-04T09:50:25;3.83;;;3.30;;
9106;SDS011;4589;48.690;8.952;2023-06-04T09:52:52;3.20;;;2.67;;
9106;SDS011;4589;48.690;8.952;2023-06-04T09:55:18;2.80;;;2.30;;
9106;SDS011;4589;48.690;8.952;2023-06-04T09:57:51;3.17;;;2.73;;
9106;SDS011;4589;48.690;8.952;2023-06-04T10:00:19;3.00;;;2.70;;
9106;SDS011;4589;48.690;8.952;2023-06-04T10:02:47;8.07;;;3.30;;
9106;SDS011;4589;48.690;8.952;2023-06-04T10:05:14;5.40;;;3.07;;
9106;SDS011;4589;48.690;8.952;2023-06-04T10:07:44;3.93;;;3.20;;
9106;SDS011;4589;48.690;8.952;2023-06-04T10:10:11;3.83;;;3.10;;
9106;SDS011;4589;48.690;8.952;2023-06-04T10:12:41;3.40;;;3.10;;
9106;SDS011;4589;48.690;8.952;2023-06-04T10:15:11;3.63;;;3.20;;
9106;SDS011;4589;48.690;8.952;2023-06-04T10:17:38;4.60;;;2.93;;
9106;SDS011;4589;48.690;8.952;2023-06-04T10:20:05;5.83;;;3.43;;
9106;SDS011;4589;48.690;8.952;2023-06-04T10:22:37;4.20;;;3.33;;
9106;SDS011;4589;48.690;8.952;2023-06-04T10:25:03;4.50;;;2.97;;
9106;SDS011;4589;48.690;8.952;2023-06-04T10:27:32;3.07;;;2.77;;
9106;SDS011;4589;48.690;8.952;2023-06-04T10:30:02;5.50;;;3.03;;
9106;SDS011;4589;48.690;8.952;2023-06-04T10:32:29;5.80;;;3.33;;
9106;SDS011;4589;48.690;8.952;2023-06-04T10:34:56;3.70;;;3.37;;
9106;SDS011;4589;48.690;8.952;2023-06-04T10:37:26;3.13;;;2.83;;
9106;SDS011;4589;48.690;8.952;2023-06-04T10:39:57;3.97;;;3.57;;
9106;SDS011;4589;48.690;8.952;2023-06-04T10:42:24;4.57;;;3.30;;
9106;SDS011;4589;48.690;8.952;2023-06-04T10:44:51;4.70;;;3.10;;
9106;SDS011;4589;48.690;8.952;2023-06-04T10:47:27;4.77;;;3.70;;
9106;SDS011;4589;48.690;8.952;2023-06-04T10:50:08;3.70;;;3.30;;
9106;SDS011;4589;48.690;8.952;2023-06-04T10:52:35;4.10;;;3.30;;
9106;SDS011;4589;48.690;8.952;2023-06-04T10:55:04;4.37;;;3.37;;
9106;SDS011;4589;48.690;8.952;2023-06-04T10:57:31;4.40;;;4.00;;
9106;SDS011;4589;48.690;8.952;2023-06-04T10:59:58;3.57;;;3.30;;
9106;SDS011;4589;48.690;8.952;2023-06-04T11:02:25;3.50;;;3.20;;
9106;SDS011;4589;48.690;8.952;2023-06-04T11:05:01;3.97;;;3.67;;
9106;SDS011;4589;48.690;8.952;2023-06-04T11:07:43;4.43;;;3.57;;
9106;SDS011;4589;48.690;8.952;2023-06-04T11:10:11;3.10;;;2.50;;
9106;SDS011;4589;48.690;8.952;2023-06-04T11:12:44;3.33;;;2.67;;
9106;SDS011;4589;48.690;8.952;2023-06-04T11:15:16;4.17;;;3.57;;
9106;SDS011;4589;48.690;8.952;2023-06-04T11:17:55;3.97;;;3.53;;
9106;SDS011;4589;48.690;8.952;2023-06-04T11:20:23;5.00;;;3.57;;
9106;SDS011;4589;48.690;8.952;2023-06-04T11:22:56;3.63;;;3.33;;
9106;SDS011;4589;48.690;8.952;2023-06-04T11:25:26;4.40;;;3.37;;
9106;SDS011;4589;48.690;8.952;2023-06-04T11:27:53;4.37;;;3.50;;
9106;SDS011;4589;48.690;8.952;2023-06-04T11:30:20;3.73;;;3.33;;
9106;SDS011;4589;48.690;8.952;2023-06-04T11:32:46;3.63;;;3.33;;
9106;SDS011;4589;48.690;8.952;2023-06-04T11:35:12;3.60;;;3.17;;
9106;SDS011;4589;48.690;8.952;2023-06-04T11:37:38;5.00;;;4.50;;
9106;SDS011;4589;48.690;8.952;2023-06-04T11:40:19;4.07;;;3.23;;
9106;SDS011;4589;48.690;8.952;2023-06-04T11:42:46;3.17;;;2.87;;
9106;SDS011;4589;48.690;8.952;2023-06-04T11:45:12;3.90;;;3.47;;
9106;SDS011;4589;48.690;8.952;2023-06-04T11:47:39;3.30;;;3.00;;
9106;SDS011;4589;48.690;8.952;2023-06-04T11:50:05;3.40;;;3.10;;
9106;SDS011;4589;48.690;8.952;2023-06-04T11:52:33;3.17;;;2.87;;
9106;SDS011;4589;48.690;8.952;2023-06-04T11:54:59;4.23;;;3.03;;
9106;SDS011;4589;48.690;8.952;2023-06-04T11:57:24;5.90;;;3.10;;
9106;SDS011;4589;48.690;8.952;2023-06-04T11:59:50;3.30;;;2.80;;
9106;SDS011;4589;48.690;8.952;2023-06-04T12:02:16;3.60;;;3.30;;
9106;SDS011;4589;48.690;8.952;2023-06-04T12:04:43;3.37;;;3.07;;
9106;SDS011;4589;48.690;8.952;2023-06-04T12:07:10;3.13;;;2.83;;
9106;SDS011;4589;48.690;8.952;2023-06-04T12:09:36;8.23;;;4.13;;
9106;SDS011;4589;48.690;8.952;2023-06-04T12:12:05;3.50;;;3.20;;
9106;SDS011;4589;48.690;8.952;2023-06-04T12:14:32;3.73;;;3.43;;
9106;SDS011;4589;48.690;8.952;2023-06-04T12:17:02;3.50;;;3.20;;
9106;SDS011;4589;48.690;8.952;2023-06-04T12:19:28;4.47;;;3.70;;
9106;SDS011;4589;48.690;8.952;2023-06-04T12:22:04;3.83;;;3.40;;
9106;SDS011;4589;48.690;8.952;2023-06-04T12:24:31;3.13;;;2.83;;
9106;SDS011;4589;48.690;8.952;2023-06-04T12:27:04;4.07;;;3.60;;
9106;SDS011;4589;48.690;8.952;2023-06-04T12:29:31;3.70;;;3.40;;
9106;SDS011;4589;48.690;8.952;2023-06-04T12:32:04;3.70;;;3.30;;
9106;SDS011;4589;48.690;8.952;2023-06-04T12:34:36;4.37;;;3.23;;
9106;SDS011;4589;48.690;8.952;2023-06-04T12:37:02;5.73;;;3.60;;
9106;SDS011;4589;48.690;8.952;2023-06-04T12:39:28;3.70;;;3.40;;
9106;SDS011;4589;48.690;8.952;2023-06-04T12:41:57;4.03;;;3.40;;
9106;SDS011;4589;48.690;8.952;2023-06-04T12:44:23;3.60;;;2.93;;
9106;SDS011;4589;48.690;8.952;2023-06-04T12:46:49;4.23;;;3.70;;
9106;SDS011;4589;48.690;8.952;2023-06-04T12:49:15;3.50;;;3.10;;
9106;SDS011;4589;48.690;8.952;2023-06-04T12:51:41;4.13;;;3.13;;
9106;SDS011;4589;48.690;8.952;2023-06-04T12:54:07;4.30;;;3.17;;
9106;SDS011;4589;48.690;8.952;2023-06-04T12:56:32;4.60;;;3.50;;
9106;SDS011;4589;48.690;8.952;2023-06-04T12:58:58;4.33;;;3.03;;
9106;SDS011;4589;48.690;8.952;2023-06-04T13:01:24;4.27;;;3.40;;
9106;SDS011;4589;48.690;8.952;2023-06-04T13:03:50;4.00;;;3.60;;
9106;SDS011;4589;48.690;8.952;2023-06-04T13:06:15;4.67;;;3.30;;
9106;SDS011;4589;48.690;8.952;2023-06-04T13:08:41;3.80;;;3.20;;
9106;SDS011;4589;48.690;8.952;2023-06-04T13:11:08;3.87;;;3.50;;
9106;SDS011;4589;48.690;8.952;2023-06-04T13:13:34;8.23;;;3.97;;
9106;SDS011;4589;48.690;8.952;2023-06-04T13:16:00;3.97;;;3.67;;
9106;SDS011;4589;48.690;8.952;2023-06-04T13:18:26;4.03;;;3.43;;
9106;SDS011;4589;48.690;8.952;2023-06-04T13:20:52;4.20;;;3.43;;
9106;SDS011;4589;48.690;8.952;2023-06-04T13:23:17;4.67;;;3.30;;
9106;SDS011;4589;48.690;8.952;2023-06-04T13:25:43;4.27;;;3.87;;
9106;SDS011;4589;48.690;8.952;2023-06-04T13:28:09;4.43;;;3.17;;
9106;SDS011;4589;48.690;8.952;2023-06-04T13:30:35;4.30;;;3.90;;
9106;SDS011;4589;48.690;8.952;2023-06-04T13:33:04;4.43;;;3.80;;
9106;SDS011;4589;48.690;8.952;2023-06-04T13:35:30;4.30;;;3.43;;
9106;SDS011;4589;48.690;8.952;2023-06-04T13:37:56;4.80;;;4.30;;
9106;SDS011;4589;48.690;8.952;2023-06-04T13:40:22;4.50;;;3.90;;
9106;SDS011;4589;48.690;8.952;2023-06-04T13:42:48;4.00;;;3.60;;
9106;SDS011;4589;48.690;8.952;2023-06-04T13:45:14;3.63;;;3.23;;
9106;SDS011;4589;48.690;8.952;2023-06-04T13:47:41;3.43;;;3.10;;
9106;SDS011;4589;48.690;8.952;2023-06-04T13:50:07;6.17;;;2.90;;
9106;SDS011;4589;48.690;8.952;2023-06-04T13:52:33;3.90;;;3.50;;
9106;SDS011;4589;48.690;8.952;2023-06-04T13:55:00;5.80;;;3.33;;
9106;SDS011;4589;48.690;8.952;2023-06-04T13:57:26;4.70;;;3.40;;
9106;SDS011;4589;48.690;8.952;2023-06-04T13:59:52;3.90;;;3.20;;
9106;SDS011;4589;48.690;8.952;2023-06-04T14:02:18;4.97;;;3.43;;
9106;SDS011;4589;48.690;8.952;2023-06-04T14:04:44;5.90;;;3.57;;
9106;SDS011;4589;48.690;8.952;2023-06-04T14:07:10;3.30;;;3.00;;
9106;SDS011;4589;48.690;8.952;2023-06-04T14:09:36;4.00;;;3.40;;
9106;SDS011;4589;48.690;8.952;2023-06-04T14:12:03;3.70;;;3.40;;
9106;SDS011;4589;48.690;8.952;2023-06-04T14:14:29;5.03;;;3.07;;
9106;SDS011;4589;48.690;8.952;2023-06-04T14:17:04;2.97;;;2.77;;
9106;SDS011;4589;48.690;8.952;2023-06-04T14:19:32;3.60;;;3.03;;
9106;SDS011;4589;48.690;8.952;2023-06-04T14:21:58;3.00;;;2.70;;
9106;SDS011;4589;48.690;8.952;2023-06-04T14:24:24;3.93;;;2.73;;
9106;SDS011;4589;48.690;8.952;2023-06-04T14:26:50;4.10;;;3.20;;
9106;SDS011;4589;48.690;8.952;2023-06-04T14:29:16;5.80;;;3.60;;
9106;SDS011;4589;48.690;8.952;2023-06-04T14:31:42;5.20;;;3.97;;
9106;SDS011;4589;48.690;8.952;2023-06-04T14:34:08;4.10;;;3.10;;
9106;SDS011;4589;48.690;8.952;2023-06-04T14:36:35;4.10;;;3.23;;
9106;SDS011;4589;48.690;8.952;2023-06-04T14:39:01;6.00;;;4.47;;
9106;SDS011;4589;48.690;8.952;2023-06-04T14:41:26;6.97;;;3.47;;
9106;SDS011;4589;48.690;8.952;2023-06-04T14:43:52;3.70;;;3.40;;
9106;SDS011;4589;48.690;8.952;2023-06-04T14:46:18;6.13;;;3.10;;
9106;SDS011;4589;48.690;8.952;2023-06-04T14:48:44;4.80;;;3.20;;
9106;SDS011;4589;48.690;8.952;2023-06-04T14:51:10;4.97;;;4.47;;
9106;SDS011;4589;48.690;8.952;2023-06-04T14:53:36;5.30;;;4.73;;
9106;SDS011;4589;48.690;8.952;2023-06-04T14:56:04;4.07;;;3.67;;
9106;SDS011;4589;48.690;8.952;2023-06-04T14:58:30;3.63;;;3.33;;
9106;SDS011;4589;48.690;8.952;2023-06-04T15:00:56;3.37;;;3.07;;
9106;SDS011;4589;48.690;8.952;2023-06-04T15:03:24;6.13;;;3.20;;
9106;SDS011;4589;48.690;8.952;2023-06-04T15:05:50;3.90;;;3.37;;
9106;SDS011;4589;48.690;8.952;2023-06-04T15:08:17;4.23;;;3.20;;
9106;SDS011;4589;48.690;8.952;2023-06-04T15:10:42;6.13;;;4.47;;
9106;SDS011;4589;48.690;8.952;2023-06-04T15:13:08;3.20;;;2.90;;
9106;SDS011;4589;48.690;8.952;2023-06-04T15:15:34;3.70;;;3.23;;
9106;SDS011;4589;48.690;8.952;2023-06-04T15:18:00;4.80;;;3.40;;
9106;SDS011;4589;48.690;8.952;2023-06-04T15:20:25;5.00;;;3.37;;
9106;SDS011;4589;48.690;8.952;2023-06-04T15:22:52;3.33;;;3.03;;